Airfield :
LOGIN :

Register | Disclaimer

   EN    FR    IT 

 










Legend :    VFR   Marginal VFR   IFR   Intensive IFR   Very Intensive IFR
Visi :
Ceiling :
>= 8 km
>= 3000ft
5 to 8 km
1000 to 3000 ft
1500m to 5 km
500 to 1000 ft
800 to 1500m
200 to 500 ft
< 800m
< 200 ft
Symbols :   Thunderstorms  Fog  Heavy snow  Heavy precipitations  Wind > 20 kt
SIGMETs :     Misc.  Thunderstorms  Icing  Turbulence  Mountain Waves  Volcanic Ashes







- Airport Elevation : 909 ft
- IATA code : KSF


EDVK - Kassel Calden

CURRENT METAR :
  • 240750Z 29010KT 9999 SCT045 08/04 Q1029

EXPIRED METARs :
  • 240720Z 29013KT 9999 FEW048 08/04 Q1028
  • 240650Z 28009KT 9999 FEW032 SCT061 BKN076 07/05 Q1028
  • 240620Z 28009KT 9999 FEW039 SCT045 07/05 Q1027
  • 240550Z 28009KT 9999 FEW035 SCT045 06/04 Q1027
  • 240520Z 28011KT 9999 FEW049 06/04 Q1026

TAF TAF EDVK
Valid from the 24 at 06:00 until the 24 at 15:00 UTC


240500Z 2406/2415 28012KT 9999 FEW030
TEMPO 2408/2415 30015G30KT SHRA SCT020TCU
No reported NOTAMs for that airfield.



MET'MAP, your aeronautical weather chart ! - Copyright ORBIFLY December 2007 - Disclaimer

ORBIFLY MET'MAP TEAM :

Programming & Development : Alexandra Zaïnal
Concept & Development : Baudouin d'Aumeries
Co-Development & Prog : Marc-Olivier Méhu
Technical & hardware support : Manuel Goepfert

Contact : metmap@orbifly.com




SOURCES & CREDITS :

   NOAA